Terminal Aerodrome Forecast
Issued by NWS

Home | Current Version | Previous Version | Text Only | Print | Product List | Glossary On
Versions: 1 2 3 4 5 6 7 8 9 10 11 12
000
FTUS42 KTAE 291120
TAFECP
TAF
KECP 291120Z 2912/3012 30004KT P6SM SCT100 BKN250
     FM291500 34005KT P6SM SCT040
     FM291800 24006KT P6SM VCTS BKN050CB
     FM300100 30003KT P6SM FEW060 SCT250=

USA.gov is the U.S. government's official web portal to all federal, state and local government web resources and services.